Time;durP1;ratioP1;P1;durP2;ratioP2;P2;SDS_P1;SDS_P2;PMS_P1;PMS_P2;Temp;Humidity;BMP_temperature;BMP_pressure;BME280_temperature;BME280_humidity;BME280_pressure;Samples;Min_cycle;Max_cycle;Signal;HPM_P1;HPM_P2
2022/10/06 00:02:09;;;;;;;3.53;0.80;;;;;;;19.67;55.06;102114.38;5064462;28;20048;-62
2022/10/06 00:04:34;;;;;;;3.47;0.90;;;;;;;19.67;54.94;102122.31;5064164;28;20032;-61
2022/10/06 00:06:59;;;;;;;3.08;0.90;;;;;;;19.65;54.98;102126.88;5064350;28;20028;-62
2022/10/06 00:09:25;;;;;;;4.20;0.80;;;;;;;19.66;54.70;102128.56;5063546;28;20052;-62
2022/10/06 00:11:50;;;;;;;3.20;0.90;;;;;;;19.68;54.95;102138.09;5064496;28;20143;-62
2022/10/06 00:14:15;;;;;;;2.83;0.70;;;;;;;19.65;55.08;102146.22;5064067;28;20288;-63
2022/10/06 00:16:40;;;;;;;2.38;0.73;;;;;;;19.63;54.95;102152.56;5064332;28;20151;-63
2022/10/06 00:19:06;;;;;;;3.20;0.80;;;;;;;19.62;54.83;102148.25;5063911;28;20036;-61
2022/10/06 00:21:31;;;;;;;2.50;0.70;;;;;;;19.63;54.76;102160.50;5064296;28;20257;-64
2022/10/06 00:23:57;;;;;;;2.33;0.80;;;;;;;19.65;54.87;102177.97;5064044;28;20582;-61
2022/10/06 00:26:23;;;;;;;2.90;0.85;;;;;;;19.65;54.87;102170.03;5063760;28;20293;-62
2022/10/06 00:28:49;;;;;;;2.80;0.73;;;;;;;19.64;55.00;102175.41;5064106;28;20491;-64
2022/10/06 00:31:15;;;;;;;3.30;0.80;;;;;;;19.62;54.81;102182.63;5063798;28;20464;-64
2022/10/06 00:33:40;;;;;;;2.38;0.63;;;;;;;19.64;54.80;102186.00;5063814;28;20132;-63
2022/10/06 00:36:07;;;;;;;4.00;0.90;;;;;;;19.64;54.88;102189.47;5063642;28;20433;-63
2022/10/06 00:38:33;;;;;;;3.83;0.80;;;;;;;19.64;54.75;102191.28;5063568;28;20070;-64
2022/10/06 00:40:58;;;;;;;3.70;1.02;;;;;;;19.61;54.66;102183.56;5063812;28;20029;-62
2022/10/06 00:43:45;;;;;;;1.48;0.73;;;;;;;19.62;54.53;102196.69;5063619;28;20039;-62
2022/10/06 00:46:51;;;;;;;3.88;0.93;;;;;;;19.62;54.72;102198.47;5063965;28;20077;-63
2022/10/06 00:49:35;;;;;;;2.90;0.80;;;;;;;19.55;54.58;102187.44;5062953;28;20044;-62
2022/10/06 00:52:07;;;;;;;2.72;0.90;;;;;;;19.55;54.64;102190.09;5063464;28;20032;-63
2022/10/06 00:54:34;;;;;;;3.13;0.80;;;;;;;19.57;54.79;102196.13;5063138;28;20135;-64
2022/10/06 00:57:00;;;;;;;3.58;0.95;;;;;;;19.52;54.66;102195.59;5063167;28;20042;-63
2022/10/06 00:59:26;;;;;;;2.65;0.80;;;;;;;19.57;54.63;102198.78;5063572;28;20021;-62
2022/10/06 01:01:59;;;;;;;3.67;0.90;;;;;;;19.52;54.39;102196.44;5063275;28;20086;-64
2022/10/06 01:04:26;;;;;;;3.72;1.00;;;;;;;19.56;54.36;102219.06;5063513;28;20056;-64
2022/10/06 01:06:54;;;;;;;4.07;0.70;;;;;;;19.57;54.29;102227.88;5063011;28;20055;-62
2022/10/06 01:09:21;;;;;;;3.33;1.10;;;;;;;19.57;54.35;102225.22;5063219;28;20243;-62
2022/10/06 01:11:50;;;;;;;3.00;0.98;;;;;;;19.51;54.67;102220.34;5063060;28;20024;-62
2022/10/06 01:14:18;;;;;;;2.20;0.70;;;;;;;19.52;54.32;102230.81;5063352;28;20028;-62
2022/10/06 01:16:48;;;;;;;2.38;0.75;;;;;;;19.48;54.21;102228.47;5062971;28;20055;-62
2022/10/06 01:19:29;;;;;;;2.58;0.80;;;;;;;19.53;54.27;102243.06;5062887;28;20028;-62
2022/10/06 01:21:59;;;;;;;3.60;0.90;;;;;;;19.54;54.18;102254.50;5062812;28;20040;-62
2022/10/06 01:24:24;;;;;;;3.58;1.05;;;;;;;19.52;54.16;102249.31;5063027;28;20033;-63
2022/10/06 01:26:51;;;;;;;2.70;0.70;;;;;;;19.47;54.09;102243.50;5062598;28;20071;-63
2022/10/06 01:29:17;;;;;;;3.67;0.90;;;;;;;19.51;53.91;102254.72;5062963;28;20108;-64
2022/10/06 01:31:42;;;;;;;3.13;0.90;;;;;;;19.53;54.18;102266.88;5062545;28;20039;-62
2022/10/06 01:34:08;;;;;;;4.50;1.00;;;;;;;19.45;53.98;102257.75;5062741;28;20029;-62
2022/10/06 01:36:33;;;;;;;2.65;0.90;;;;;;;19.52;54.11;102280.22;5062434;28;20052;-64
2022/10/06 01:38:58;;;;;;;2.30;0.70;;;;;;;19.45;54.09;102261.22;5062625;28;20914;-62
2022/10/06 01:41:25;;;;;;;5.03;0.80;;;;;;;19.51;53.77;102279.34;5062304;28;20289;-63
2022/10/06 01:43:51;;;;;;;3.38;0.93;;;;;;;19.46;54.03;102270.03;5062547;28;20261;-63
2022/10/06 01:46:16;;;;;;;4.23;1.20;;;;;;;19.50;53.88;102292.66;5062717;28;20376;-61
2022/10/06 01:48:41;;;;;;;3.00;0.80;;;;;;;19.27;53.73;102251.88;5061968;28;20257;-63
2022/10/06 01:51:11;;;;;;;1.52;0.60;;;;;;;19.43;53.90;102281.66;5061815;28;20283;-62
2022/10/06 01:53:36;;;;;;;3.03;0.90;;;;;;;19.43;53.83;102292.22;5062142;28;20043;-62
2022/10/06 01:56:01;;;;;;;5.03;1.33;;;;;;;19.40;53.85;102287.97;5062296;28;20036;-62
2022/10/06 01:58:26;;;;;;;4.57;1.00;;;;;;;19.47;53.72;102298.16;5062326;28;20285;-62
2022/10/06 02:00:53;;;;;;;3.08;0.80;;;;;;;19.43;53.70;102300.16;5062253;28;20839;-62
2022/10/06 02:03:18;;;;;;;2.50;0.80;;;;;;;19.46;53.67;102310.53;5062472;28;20468;-63
2022/10/06 02:05:43;;;;;;;3.23;0.90;;;;;;;19.41;53.51;102304.69;5061693;28;20024;-62
2022/10/06 02:08:09;;;;;;;2.90;0.97;;;;;;;19.43;53.49;102302.78;5062192;28;20652;-63
2022/10/06 02:10:35;;;;;;;3.67;0.85;;;;;;;19.46;53.40;102314.97;5062005;28;20269;-63
2022/10/06 02:13:00;;;;;;;2.92;0.80;;;;;;;19.39;53.33;102303.91;5060620;28;20032;-64
2022/10/06 02:15:26;;;;;;;3.57;0.90;;;;;;;19.45;53.31;102314.09;5061866;28;20020;-62
2022/10/06 02:17:52;;;;;;;3.08;0.85;;;;;;;19.42;53.41;102316.09;5061976;28;20253;-61
2022/10/06 02:20:17;;;;;;;3.97;0.90;;;;;;;19.42;53.13;102314.31;5061551;28;20016;-62
2022/10/06 02:22:42;;;;;;;2.92;0.80;;;;;;;19.37;53.25;102319.03;5061662;28;20036;-61
2022/10/06 02:25:08;;;;;;;3.00;0.90;;;;;;;19.36;53.36;102320.00;5061706;28;20029;-62
2022/10/06 02:27:34;;;;;;;4.32;0.85;;;;;;;19.42;53.30;102335.44;5062039;28;20055;-62
2022/10/06 02:29:59;;;;;;;4.63;1.00;;;;;;;19.40;53.42;102337.34;5061682;28;20075;-62
2022/10/06 02:32:31;;;;;;;4.33;2.10;;;;;;;19.41;53.20;102344.34;5061494;28;20261;-62
2022/10/06 02:34:58;;;;;;;2.97;0.82;;;;;;;19.35;53.25;102334.16;5061450;28;20266;-61
2022/10/06 02:37:23;;;;;;;3.72;1.23;;;;;;;19.34;53.19;102343.91;5061432;28;20044;-62
2022/10/06 02:39:49;;;;;;;5.00;1.07;;;;;;;19.40;53.19;102355.84;5061628;28;20099;-61
2022/10/06 02:42:14;;;;;;;3.67;1.10;;;;;;;19.34;53.23;102340.38;5061633;28;20269;-63
2022/10/06 02:44:39;;;;;;;3.27;0.87;;;;;;;19.37;53.23;102358.69;5061468;28;20326;-60
2022/10/06 02:47:04;;;;;;;4.70;1.00;;;;;;;19.39;53.04;102362.97;5061366;28;20310;-63
2022/10/06 02:49:30;;;;;;;3.80;1.08;;;;;;;19.34;53.16;102364.16;5059828;28;20782;-62
2022/10/06 02:51:56;;;;;;;3.55;0.93;;;;;;;19.33;52.94;102363.34;5061276;28;20040;-63
2022/10/06 02:54:21;;;;;;;3.67;0.70;;;;;;;19.26;53.10;102361.16;5061265;28;20032;-61
2022/10/06 02:56:48;;;;;;;3.40;0.90;;;;;;;19.29;52.97;102368.91;5061442;28;20756;-60
2022/10/06 02:59:14;;;;;;;4.82;1.10;;;;;;;19.30;52.96;102370.63;5061360;28;20479;-63
2022/10/06 03:01:39;;;;;;;5.13;0.90;;;;;;;19.37;52.81;102393.06;5061093;28;20036;-62
2022/10/06 03:04:04;;;;;;;4.40;1.30;;;;;;;19.36;52.85;102399.31;5061087;28;20026;-61
2022/10/06 03:06:30;;;;;;;2.10;0.70;;;;;;;19.33;52.66;102392.41;5061207;28;20261;-61
2022/10/06 03:08:58;;;;;;;4.15;0.95;;;;;;;19.29;52.82;102390.06;5061172;28;20311;-61
2022/10/06 03:11:43;;;;;;;3.33;1.10;;;;;;;19.31;52.81;102406.66;5060966;28;20032;-61
2022/10/06 03:14:08;;;;;;;3.28;0.80;;;;;;;19.31;52.86;102409.31;5061363;28;20036;-62
2022/10/06 03:16:39;;;;;;;4.70;1.10;;;;;;;19.31;52.89;102407.53;5061287;28;20036;-62
2022/10/06 03:19:06;;;;;;;3.15;1.00;;;;;;;19.33;52.85;102420.66;5061012;28;20056;-62
2022/10/06 03:21:34;;;;;;;3.25;0.90;;;;;;;19.31;52.61;102418.09;5060845;28;20028;-64
2022/10/06 03:24:00;;;;;;;4.53;0.98;;;;;;;19.32;52.54;102429.50;5061171;28;20834;-62
2022/10/06 03:26:29;;;;;;;3.33;0.95;;;;;;;19.31;52.61;102428.69;5061065;28;20045;-62
2022/10/06 03:28:55;;;;;;;3.17;0.90;;;;;;;19.19;52.88;102411.75;5061163;28;20060;-64
2022/10/06 03:31:21;;;;;;;3.33;0.90;;;;;;;19.23;52.71;102416.84;5060558;28;20379;-64
2022/10/06 03:33:46;;;;;;;4.18;1.00;;;;;;;19.24;52.47;102426.50;5060755;28;20037;-61
2022/10/06 03:36:15;;;;;;;4.53;0.93;;;;;;;19.24;52.52;102427.34;5061050;28;20025;-62
2022/10/06 03:38:40;;;;;;;4.15;1.05;;;;;;;19.23;52.58;102428.28;5060535;28;20835;-62
2022/10/06 03:41:07;;;;;;;4.75;0.98;;;;;;;19.27;52.80;102443.00;5060799;28;20021;-62
2022/10/06 03:43:34;;;;;;;3.40;1.00;;;;;;;19.27;52.47;102443.00;5060845;28;20040;-63
2022/10/06 03:46:00;;;;;;;2.70;0.98;;;;;;;19.21;52.56;102438.94;5059026;28;20740;-62
2022/10/06 03:48:30;;;;;;;2.90;0.90;;;;;;;19.25;52.39;102449.31;5060666;28;20025;-61
2022/10/06 03:50:57;;;;;;;4.47;0.93;;;;;;;19.25;52.56;102452.84;5059539;28;20433;-63
2022/10/06 03:53:26;;;;;;;3.47;1.10;;;;;;;19.20;52.35;102442.53;5060312;28;20123;-64
2022/10/06 03:56:11;;;;;;;3.03;0.95;;;;;;;19.19;52.33;102448.75;5060863;28;20024;-62
2022/10/06 03:58:37;;;;;;;;;;;;;;;19.23;52.39;102467.91;5061179;28;20353;-63
2022/10/06 04:01:06;;;;;;;4.07;1.00;;;;;;;19.25;52.24;102473.97;5060216;28;19920;-64
2022/10/06 04:03:32;;;;;;;3.15;1.00;;;;;;;19.18;52.57;102468.22;5060412;28;20380;-63
2022/10/06 04:05:59;;;;;;;4.90;1.05;;;;;;;19.24;52.22;102482.00;5060801;28;20785;-62
2022/10/06 04:08:25;;;;;;;5.18;1.00;;;;;;;19.20;52.17;102481.31;5060645;28;20036;-61
2022/10/06 04:10:50;;;;;;;3.70;1.00;;;;;;;19.17;52.43;102479.72;5060666;28;20047;-63
2022/10/06 04:13:16;;;;;;;4.82;1.02;;;;;;;19.22;52.16;102495.31;5062546;28;20123;-61
2022/10/06 04:15:42;;;;;;;3.72;1.00;;;;;;;19.07;52.06;102469.78;5063505;28;20056;-62
2022/10/06 04:18:07;;;;;;;3.10;0.93;;;;;;;19.16;52.09;102490.38;5064319;28;20440;-63
2022/10/06 04:20:32;;;;;;;4.10;1.07;;;;;;;19.22;52.06;102513.81;5063647;28;20052;-63
2022/10/06 04:22:58;;;;;;;4.22;1.10;;;;;;;19.06;51.99;102487.44;5064315;28;20279;-62
2022/10/06 04:25:23;;;;;;;5.20;1.10;;;;;;;19.20;52.12;102507.75;5063563;28;20048;-63
2022/10/06 04:27:48;;;;;;;4.37;1.10;;;;;;;19.15;51.97;102508.03;5063945;28;20033;-61
2022/10/06 04:30:14;;;;;;;4.67;1.10;;;;;;;19.14;51.98;102508.13;5063539;28;20693;-61
2022/10/06 04:32:39;;;;;;;4.25;1.13;;;;;;;19.20;51.91;102526.25;5064080;28;20315;-62
2022/10/06 04:35:05;;;;;;;3.38;0.98;;;;;;;19.18;51.99;102523.72;5063855;28;20036;-64
2022/10/06 04:37:30;;;;;;;6.00;1.35;;;;;;;19.19;52.08;102529.84;5064125;28;20231;-63
2022/10/06 04:39:55;;;;;;;4.63;1.00;;;;;;;19.12;51.90;102525.84;5063583;28;20041;-61
2022/10/06 04:42:20;;;;;;;2.40;0.80;;;;;;;19.18;51.91;102529.00;5063741;28;20352;-60
2022/10/06 04:44:46;;;;;;;2.53;0.80;;;;;;;19.15;51.73;102523.03;5063452;28;20744;-61
2022/10/06 04:47:11;;;;;;;5.03;1.50;;;;;;;19.10;51.72;102520.66;5063809;28;20043;-64
2022/10/06 04:49:36;;;;;;;4.40;0.93;;;;;;;19.15;51.65;102533.59;5063531;28;20305;-62
2022/10/06 04:52:01;;;;;;;3.93;1.00;;;;;;;19.10;51.69;102533.03;5063939;28;20257;-63
2022/10/06 04:54:27;;;;;;;5.78;1.00;;;;;;;19.16;51.69;102546.72;5063237;28;20745;-62
2022/10/06 04:56:52;;;;;;;4.13;1.00;;;;;;;19.08;51.76;102534.91;5063853;28;20037;-63
2022/10/06 04:59:17;;;;;;;4.90;1.20;;;;;;;19.08;51.64;102538.41;5063343;28;20353;-61
2022/10/06 05:01:42;;;;;;;5.20;1.30;;;;;;;19.13;51.69;102546.06;5063480;28;20158;-62
2022/10/06 05:04:08;;;;;;;3.67;0.98;;;;;;;19.03;51.42;102535.19;5063571;28;20249;-63
2022/10/06 05:06:36;;;;;;;3.33;1.00;;;;;;;19.12;51.58;102562.84;5063583;28;20040;-63
2022/10/06 05:09:11;;;;;;;5.07;1.13;;;;;;;19.14;51.45;102572.41;5063111;28;20403;-63
2022/10/06 05:11:37;;;;;;;2.75;0.95;;;;;;;19.13;51.48;102588.34;5063416;28;20028;-64
2022/10/06 05:14:02;;;;;;;4.68;1.52;;;;;;;19.04;51.49;102571.22;5062865;28;20036;-63
2022/10/06 05:16:29;;;;;;;5.45;1.00;;;;;;;19.11;51.42;102577.03;5063024;28;20115;-64
2022/10/06 05:18:54;;;;;;;4.25;1.40;;;;;;;19.05;51.18;102574.72;5063136;28;20036;-64
2022/10/06 05:21:31;;;;;;;4.93;1.30;;;;;;;19.06;51.45;102577.28;5063053;28;20033;-63
2022/10/06 05:23:57;;;;;;;4.75;1.00;;;;;;;19.04;51.34;102579.16;5061908;28;20265;-62
2022/10/06 05:26:26;;;;;;;5.05;1.20;;;;;;;19.08;51.39;102593.91;5062487;28;21350;-65
2022/10/06 05:28:52;;;;;;;6.53;1.60;;;;;;;19.05;51.08;102587.94;5062806;28;20029;-63
2022/10/06 05:31:20;;;;;;;4.85;1.10;;;;;;;19.08;51.26;102600.97;5063054;28;20039;-61
2022/10/06 05:33:46;;;;;;;4.20;1.10;;;;;;;19.03;51.30;102593.31;5062845;28;20028;-61
2022/10/06 05:36:12;;;;;;;3.20;0.90;;;;;;;19.10;51.43;102612.31;5063323;28;20529;-61
2022/10/06 05:38:38;;;;;;;6.03;1.48;;;;;;;19.08;51.30;102615.03;5062562;28;20028;-61
2022/10/06 05:41:06;;;;;;;4.28;1.27;;;;;;;19.06;50.90;102616.06;5062431;28;20040;-64
2022/10/06 05:43:33;;;;;;;4.32;1.33;;;;;;;18.91;51.28;102596.66;5062384;28;20044;-61
2022/10/06 05:46:01;;;;;;;4.43;1.08;;;;;;;19.11;51.02;102638.66;5062927;28;20029;-63
2022/10/06 05:48:27;;;;;;;6.65;1.45;;;;;;;19.09;50.86;102627.31;5062511;28;20032;-63
2022/10/06 05:51:08;;;;;;;4.95;1.20;;;;;;;19.04;50.87;102626.72;5062474;28;20523;-62
2022/10/06 05:53:35;;;;;;;5.30;1.35;;;;;;;19.09;50.88;102637.91;5062613;28;20036;-63
2022/10/06 05:56:13;;;;;;;4.13;1.20;;;;;;;19.12;51.14;102639.50;5062224;28;20111;-64
2022/10/06 05:58:41;;;;;;;6.25;1.50;;;;;;;19.11;50.81;102645.72;5062377;28;20044;-62
2022/10/06 06:01:17;;;;;;;5.13;1.40;;;;;;;19.11;50.83;102638.66;5062258;28;20895;-61
2022/10/06 06:03:50;;;;;;;3.63;0.93;;;;;;;19.13;50.75;102644.69;5062378;28;20123;-62
2022/10/06 06:06:27;;;;;;;5.30;1.20;;;;;;;19.07;50.69;102639.75;5062249;28;20115;-64
2022/10/06 06:08:55;;;;;;;4.68;1.45;;;;;;;19.15;50.75;102661.34;5062370;28;20091;-62
2022/10/06 06:11:24;;;;;;;5.63;1.35;;;;;;;19.14;50.71;102659.63;5062127;28;20116;-63
2022/10/06 06:13:57;;;;;;;5.63;1.17;;;;;;;19.07;50.83;102652.97;5062133;28;20035;-61
2022/10/06 06:16:23;;;;;;;7.68;1.55;;;;;;;19.08;50.48;102652.03;5061933;28;20037;-63
2022/10/06 06:18:49;;;;;;;4.70;1.35;;;;;;;19.10;50.62;102659.88;5062105;28;20028;-62
2022/10/06 06:21:14;;;;;;;5.88;1.48;;;;;;;19.16;50.68;102670.09;5061552;28;20520;-63
2022/10/06 06:23:45;;;;;;;6.07;1.20;;;;;;;19.09;50.19;102658.16;5062115;28;20805;-66
2022/10/06 06:26:14;;;;;;;4.80;1.42;;;;;;;19.15;50.75;102673.66;5061811;28;20109;-63
2022/10/06 06:28:41;;;;;;;4.40;1.02;;;;;;;19.10;51.11;102671.28;5061686;28;20031;-61
2022/10/06 06:31:13;;;;;;;3.53;1.00;;;;;;;18.94;51.31;102644.88;5061947;28;20028;-61
2022/10/06 06:33:40;;;;;;;4.00;1.20;;;;;;;19.11;51.38;102670.34;5061211;28;20115;-61
2022/10/06 06:36:16;;;;;;;4.93;1.30;;;;;;;19.19;51.35;102683.16;5061449;28;20357;-59
2022/10/06 06:38:46;;;;;;;5.70;1.48;;;;;;;19.11;51.36;102669.53;5061379;28;20028;-60
2022/10/06 06:41:17;;;;;;;6.38;1.85;;;;;;;19.14;51.57;102683.41;5061400;28;20020;-60
2022/10/06 06:43:43;;;;;;;5.22;1.30;;;;;;;19.10;51.59;102681.03;5061452;28;20735;-59
2022/10/06 06:46:08;;;;;;;5.63;1.42;;;;;;;19.12;51.36;102692.34;5061522;28;20063;-60
2022/10/06 06:48:36;;;;;;;5.70;1.10;;;;;;;19.13;51.57;102705.47;5061485;28;20028;-62
2022/10/06 06:51:02;;;;;;;4.90;1.35;;;;;;;19.16;51.45;102718.50;5060831;28;20021;-60
2022/10/06 06:53:28;;;;;;;6.80;1.50;;;;;;;19.15;51.56;102710.66;5061436;28;20029;-61
2022/10/06 06:55:53;;;;;;;6.40;1.60;;;;;;;19.11;52.32;102711.81;5061512;28;20044;-61
2022/10/06 06:58:19;;;;;;;5.23;1.27;;;;;;;19.15;51.95;102718.59;5061401;28;20472;-62
2022/10/06 07:00:44;;;;;;;7.03;1.55;;;;;;;19.11;52.04;102717.09;5060796;28;20335;-60
2022/10/06 07:03:12;;;;;;;7.15;1.40;;;;;;;19.15;51.80;102729.19;5061123;28;20461;-60
2022/10/06 07:05:38;;;;;;;4.28;1.40;;;;;;;19.12;51.79;102724.06;5061387;28;20097;-60
2022/10/06 07:08:07;;;;;;;5.70;1.45;;;;;;;19.12;52.10;102726.69;5061110;28;20029;-65
2022/10/06 07:10:35;;;;;;;5.35;1.42;;;;;;;19.10;52.13;102732.06;5058567;28;20476;-69
2022/10/06 07:13:00;;;;;;;5.53;1.67;;;;;;;19.16;52.33;102741.47;5060355;28;20525;-64
2022/10/06 07:26:21;;;;;;;7.15;1.35;;;;;;;19.42;51.65;102762.94;5057749;28;20103;-67
2022/10/06 07:28:48;;;;;;;7.10;1.77;;;;;;;19.45;51.62;102762.75;5059790;28;20040;-66
2022/10/06 07:31:15;;;;;;;5.40;1.50;;;;;;;19.46;51.44;102770.59;5060115;28;21382;-66
2022/10/06 07:33:40;;;;;;;4.57;1.33;;;;;;;19.47;51.20;102768.81;5060127;28;20461;-68
2022/10/06 07:36:06;;;;;;;4.70;1.20;;;;;;;19.52;51.22;102774.72;5058221;28;20031;-63
2022/10/06 07:38:31;;;;;;;5.93;1.60;;;;;;;19.52;51.44;102782.63;5059457;28;20025;-65
2022/10/06 07:40:57;;;;;;;7.35;1.80;;;;;;;19.57;51.42;102793.81;5060779;28;20415;-61
2022/10/06 07:43:22;;;;;;;4.78;1.48;;;;;;;19.54;51.26;102789.53;5060368;28;20040;-63
2022/10/06 07:45:48;;;;;;;6.65;1.90;;;;;;;19.58;50.96;102796.38;5059531;28;20028;-63
2022/10/06 07:48:18;;;;;;;6.85;1.80;;;;;;;19.52;51.05;102794.06;5062331;28;20064;-63
2022/10/06 07:50:46;;;;;;;5.47;2.05;;;;;;;19.59;50.97;102802.50;5064311;28;20044;-62
2022/10/06 07:53:12;;;;;;;6.68;1.80;;;;;;;19.52;50.65;102795.88;5064024;28;20031;-63
2022/10/06 07:55:40;;;;;;;5.93;1.55;;;;;;;19.46;51.03;102796.22;5064756;28;20112;-63
2022/10/06 07:58:14;;;;;;;8.30;1.60;;;;;;;19.56;51.11;102810.59;5064778;28;20127;-61
2022/10/06 08:00:40;;;;;;;8.10;1.75;;;;;;;19.55;51.05;102812.41;5064377;28;20032;-60
2022/10/06 08:03:10;;;;;;;5.45;1.50;;;;;;;19.55;51.19;102822.97;5064378;28;20032;-65
2022/10/06 08:05:37;;;;;;;7.30;1.77;;;;;;;19.49;51.10;102815.38;5064444;28;20476;-62
2022/10/06 08:08:03;;;;;;;6.28;1.50;;;;;;;19.50;51.20;102808.28;5063573;28;20469;-61
2022/10/06 08:10:28;;;;;;;7.82;1.95;;;;;;;19.55;51.14;102822.97;5064154;28;20032;-60
2022/10/06 08:12:53;;;;;;;5.53;1.30;;;;;;;19.49;51.05;102811.91;5064531;28;20066;-62
2022/10/06 08:15:19;;;;;;;4.83;1.43;;;;;;;19.51;50.97;102817.94;5064213;28;20330;-64
2022/10/06 08:17:44;;;;;;;5.40;1.47;;;;;;;19.52;50.99;102825.78;5064118;28;20613;-62
2022/10/06 08:20:11;;;;;;;5.63;1.40;;;;;;;19.59;50.90;102842.16;5064026;28;20924;-61
2022/10/06 08:22:38;;;;;;;5.35;1.33;;;;;;;19.55;50.71;102832.69;5063998;28;20119;-63
2022/10/06 08:25:05;;;;;;;6.10;1.42;;;;;;;19.63;50.82;102846.34;5063596;28;20028;-62
2022/10/06 08:27:30;;;;;;;6.13;1.70;;;;;;;19.53;50.67;102835.41;5064209;28;20098;-62
2022/10/06 08:29:56;;;;;;;6.05;1.40;;;;;;;19.60;50.86;102845.66;5064091;28;20032;-62
2022/10/06 08:32:22;;;;;;;6.10;1.42;;;;;;;19.55;50.69;102846.78;5063724;28;20388;-63
2022/10/06 08:34:48;;;;;;;6.32;1.85;;;;;;;19.54;50.51;102847.72;5063811;28;20089;-62
2022/10/06 08:37:14;;;;;;;9.18;2.53;;;;;;;19.54;50.91;102846.88;5063469;28;20083;-63
2022/10/06 08:39:41;;;;;;;6.13;1.80;;;;;;;19.61;50.77;102865.88;5063878;28;20495;-64
2022/10/06 08:42:11;;;;;;;6.43;1.40;;;;;;;19.55;50.36;102857.38;5064010;28;20047;-63
2022/10/06 08:44:44;;;;;;;5.70;1.33;;;;;;;19.59;50.62;102865.97;5063967;28;20079;-62
2022/10/06 08:47:21;;;;;;;7.20;1.40;;;;;;;19.61;50.63;102876.47;5063820;28;20032;-64
2022/10/06 08:49:49;;;;;;;7.80;1.63;;;;;;;19.62;50.63;102878.19;5063710;28;20103;-62
2022/10/06 08:52:47;;;;;;;4.43;1.40;;;;;;;19.62;50.82;102881.66;5063448;28;20188;-62
2022/10/06 08:55:39;;;;;;;9.23;1.90;;;;;;;19.62;50.47;102870.25;5063165;28;20476;-62
2022/10/06 08:58:29;;;;;;;8.20;1.42;;;;;;;19.64;50.52;102881.59;5054362;28;20048;-64
2022/10/06 09:01:08;;;;;;;7.05;1.50;;;;;;;19.63;50.61;102880.75;5063598;28;20037;-62
2022/10/06 09:03:34;;;;;;;7.25;1.58;;;;;;;19.58;50.60;102880.13;5063449;28;20093;-63
2022/10/06 09:06:28;;;;;;;6.85;1.52;;;;;;;19.60;50.69;102887.97;5063087;28;20032;-62
2022/10/06 09:08:59;;;;;;;6.43;1.65;;;;;;;19.64;50.60;102897.47;5063521;28;20045;-63
2022/10/06 09:11:55;;;;;;;6.88;1.25;;;;;;;19.64;50.40;102900.94;5063076;28;20094;-62
2022/10/06 09:14:39;;;;;;;7.65;1.88;;;;;;;19.56;50.68;102890.78;5063174;28;20070;-63
2022/10/06 09:17:10;;;;;;;5.63;1.35;;;;;;;19.58;50.55;102899.50;5063263;28;20529;-62
2022/10/06 09:19:55;;;;;;;4.97;1.35;;;;;;;19.65;50.46;102910.59;5063045;28;20032;-61
2022/10/06 09:22:22;;;;;;;8.00;1.50;;;;;;;19.67;50.49;102921.09;5062970;28;20028;-63
2022/10/06 09:24:54;;;;;;;6.03;1.42;;;;;;;19.64;50.53;102910.69;5063093;28;20024;-62
2022/10/06 09:27:23;;;;;;;5.70;1.45;;;;;;;19.68;50.54;102917.53;5062989;28;20247;-62
2022/10/06 09:29:49;;;;;;;5.63;1.40;;;;;;;19.61;50.29;102902.91;5063165;28;20052;-64
2022/10/06 09:32:17;;;;;;;5.22;1.45;;;;;;;19.67;50.54;102915.81;5063025;28;20032;-62
2022/10/06 09:34:54;;;;;;;5.78;1.85;;;;;;;19.61;50.28;102910.84;5062348;28;20445;-63
2022/10/06 09:37:21;;;;;;;6.30;1.58;;;;;;;19.66;50.36;102922.03;5062598;28;20030;-63
2022/10/06 09:39:49;;;;;;;4.65;1.40;;;;;;;19.52;50.59;102899.84;5061905;28;20452;-62
2022/10/06 09:42:25;;;;;;;8.02;1.60;;;;;;;19.62;50.58;102926.63;5062771;28;20495;-61
2022/10/06 09:44:50;;;;;;;4.53;1.58;;;;;;;19.67;50.47;102931.69;5062504;28;20024;-63
2022/10/06 09:47:27;;;;;;;7.05;1.52;;;;;;;19.68;50.55;102933.41;5062792;28;20041;-63
2022/10/06 09:50:11;;;;;;;6.25;1.58;;;;;;;19.69;50.39;102940.38;5062311;28;20044;-62
2022/10/06 09:52:37;;;;;;;5.85;1.40;;;;;;;19.55;50.56;102918.19;5062274;28;20032;-62
2022/10/06 09:55:17;;;;;;;3.85;1.13;;;;;;;19.66;50.64;102932.59;5062324;28;20028;-60
2022/10/06 09:57:51;;;;;;;5.43;1.50;;;;;;;19.68;50.69;102934.25;5062367;28;20032;-61
2022/10/06 10:00:26;;;;;;;4.90;1.40;;;;;;;19.71;50.84;102938.50;5062262;28;20055;-62
2022/10/06 10:02:58;;;;;;;5.35;1.45;;;;;;;19.64;50.72;102930.03;5062240;28;20119;-63
2022/10/06 10:05:26;;;;;;;5.88;1.42;;;;;;;19.70;50.75;102937.63;5062001;28;20424;-63
2022/10/06 10:08:16;;;;;;;4.57;1.20;;;;;;;19.72;50.62;102935.75;5062312;28;20131;-61
2022/10/06 10:10:42;;;;;;;6.32;1.60;;;;;;;19.72;50.52;102935.75;5061445;28;20032;-61
2022/10/06 10:13:23;;;;;;;5.65;1.40;;;;;;;19.67;50.58;102929.03;5061871;28;20020;-61
2022/10/06 10:15:57;;;;;;;5.88;1.30;;;;;;;19.74;50.62;102933.91;5061599;28;20036;-62
2022/10/06 10:18:26;;;;;;;5.47;1.48;;;;;;;19.73;50.41;102928.69;5061895;28;20158;-62
2022/10/06 10:20:56;;;;;;;5.32;1.30;;;;;;;19.72;50.27;102941.03;5061727;28;20020;-62
2022/10/06 10:23:32;;;;;;;5.00;1.40;;;;;;;19.75;50.32;102940.03;5061644;28;20028;-62
2022/10/06 10:26:03;;;;;;;7.28;1.75;;;;;;;19.76;50.09;102939.16;5061856;28;20405;-62
2022/10/06 10:28:49;;;;;;;7.88;1.90;;;;;;;19.76;50.33;102939.16;5061911;28;20496;-62
2022/10/06 10:31:22;;;;;;;4.50;1.05;;;;;;;19.68;50.37;102918.38;5061533;28;20464;-61
2022/10/06 10:33:58;;;;;;;7.25;1.38;;;;;;;19.70;50.39;102929.72;5061747;28;20116;-62
2022/10/06 10:36:36;;;;;;;5.93;1.38;;;;;;;19.70;50.33;102923.56;5061259;28;20025;-61
2022/10/06 10:39:08;;;;;;;5.15;1.20;;;;;;;19.71;50.41;102927.91;5061497;28;20031;-62
2022/10/06 10:41:43;;;;;;;5.00;1.42;;;;;;;19.79;50.31;102938.09;5061407;28;20036;-61
2022/10/06 10:44:13;;;;;;;6.60;1.60;;;;;;;19.79;50.27;102944.25;5061714;28;20032;-61
2022/10/06 10:46:48;;;;;;;5.40;1.35;;;;;;;19.80;50.35;102937.16;5061512;28;20034;-61
2022/10/06 10:49:31;;;;;;;6.53;1.45;;;;;;;19.79;50.13;102938.97;5061983;28;20038;-63
2022/10/06 10:52:10;;;;;;;5.95;1.60;;;;;;;19.78;50.22;102928.47;5061501;28;20064;-65
2022/10/06 10:55:26;;;;;;;4.82;1.20;;;;;;;19.78;50.30;102929.31;5061447;28;20035;-63
2022/10/06 10:57:55;;;;;;;6.60;1.58;;;;;;;19.74;50.26;102927.72;5059976;28;20033;-62
2022/10/06 11:00:26;;;;;;;4.28;1.13;;;;;;;19.74;50.02;102920.69;5060899;28;20036;-62
2022/10/06 11:02:55;;;;;;;4.25;1.23;;;;;;;19.84;50.16;102946.66;5061473;28;20032;-62
2022/10/06 11:05:41;;;;;;;6.65;1.23;;;;;;;19.77;50.02;102930.25;5061306;28;20194;-62
2022/10/06 11:08:42;;;;;;;5.38;1.50;;;;;;;19.82;50.24;102935.28;5061408;28;20017;-62
2022/10/06 11:11:19;;;;;;;8.65;3.10;;;;;;;19.85;50.11;102948.34;5053631;28;20086;-63
2022/10/06 11:13:51;;;;;;;9.40;6.28;;;;;;;19.78;50.58;102924.03;5061170;28;20028;-63
2022/10/06 11:16:22;;;;;;;12.43;9.73;;;;;;;19.87;50.45;102944.69;5061550;28;20135;-63
2022/10/06 11:19:13;;;;;;;14.00;10.40;;;;;;;19.85;50.63;102935.13;5061431;28;20052;-62
2022/10/06 11:21:49;;;;;;;17.70;13.55;;;;;;;19.89;50.88;102949.91;5061851;28;20032;-64
2022/10/06 11:24:34;;;;;;;17.05;13.77;;;;;;;19.84;51.18;102939.56;5064743;28;20036;-66
2022/10/06 11:27:18;;;;;;;;;;;;;;;19.88;50.82;102945.53;5065355;28;20049;-64
2022/10/06 11:29:59;;;;;;;17.80;14.93;;;;;;;19.93;51.13;102951.41;5065017;28;19912;-63
2022/10/06 11:32:45;;;;;;;17.95;14.35;;;;;;;19.89;50.89;102944.59;5064585;28;20037;-61
2022/10/06 11:35:25;;;;;;;16.92;13.80;;;;;;;19.89;51.05;102941.97;5064754;28;20109;-63
2022/10/06 11:38:04;;;;;;;16.48;13.80;;;;;;;19.93;50.98;102947.00;5062874;28;20024;-62
2022/10/06 11:40:51;;;;;;;18.33;14.20;;;;;;;19.93;50.81;102944.34;5063091;28;20024;-64
2022/10/06 11:43:25;;;;;;;18.38;13.70;;;;;;;19.94;51.16;102942.53;5063560;28;20039;-63
2022/10/06 11:46:00;;;;;;;16.65;12.52;;;;;;;19.94;51.12;102943.38;5063136;28;20040;-64
2022/10/06 11:48:28;;;;;;;16.45;12.65;;;;;;;19.92;50.86;102936.50;5063347;28;20464;-63